sensor_id;sensor_type;location;lat;lon;timestamp;temperature;humidity
4635;DHT22;2330;48.158;11.816;2022-08-14T00:01:44;16.70;94.00
4635;DHT22;2330;48.158;11.816;2022-08-14T00:04:20;16.80;93.90
4635;DHT22;2330;48.158;11.816;2022-08-14T00:07:08;16.70;94.10
4635;DHT22;2330;48.158;11.816;2022-08-14T00:09:36;16.70;93.50
4635;DHT22;2330;48.158;11.816;2022-08-14T00:12:23;16.70;93.40
4635;DHT22;2330;48.158;11.816;2022-08-14T00:15:27;16.90;93.30
4635;DHT22;2330;48.158;11.816;2022-08-14T00:18:04;17.10;93.20
4635;DHT22;2330;48.158;11.816;2022-08-14T00:20:34;17.30;92.80
4635;DHT22;2330;48.158;11.816;2022-08-14T00:23:10;17.30;92.70
4635;DHT22;2330;48.158;11.816;2022-08-14T00:25:45;17.30;92.50
4635;DHT22;2330;48.158;11.816;2022-08-14T00:28:33;17.30;92.30
4635;DHT22;2330;48.158;11.816;2022-08-14T00:31:02;17.20;92.10
4635;DHT22;2330;48.158;11.816;2022-08-14T00:33:31;16.90;93.10
4635;DHT22;2330;48.158;11.816;2022-08-14T00:36:21;16.60;93.90
4635;DHT22;2330;48.158;11.816;2022-08-14T00:39:12;16.60;94.00
4635;DHT22;2330;48.158;11.816;2022-08-14T00:41:40;16.70;94.00
4635;DHT22;2330;48.158;11.816;2022-08-14T00:44:08;16.90;93.70
4635;DHT22;2330;48.158;11.816;2022-08-14T00:46:38;16.90;93.50
4635;DHT22;2330;48.158;11.816;2022-08-14T00:49:07;16.90;93.30
4635;DHT22;2330;48.158;11.816;2022-08-14T00:51:41;16.80;93.50
4635;DHT22;2330;48.158;11.816;2022-08-14T00:54:10;16.70;93.50
4635;DHT22;2330;48.158;11.816;2022-08-14T00:56:50;16.70;93.70
4635;DHT22;2330;48.158;11.816;2022-08-14T00:59:25;16.80;93.60
4635;DHT22;2330;48.158;11.816;2022-08-14T01:01:56;16.80;93.40
4635;DHT22;2330;48.158;11.816;2022-08-14T01:04:24;16.80;93.40
4635;DHT22;2330;48.158;11.816;2022-08-14T01:07:12;16.70;93.60
4635;DHT22;2330;48.158;11.816;2022-08-14T01:09:55;16.40;94.40
4635;DHT22;2330;48.158;11.816;2022-08-14T01:12:26;16.30;94.70
4635;DHT22;2330;48.158;11.816;2022-08-14T01:15:00;16.20;94.70
4635;DHT22;2330;48.158;11.816;2022-08-14T01:17:30;16.20;94.70
4635;DHT22;2330;48.158;11.816;2022-08-14T01:20:19;16.10;94.80
4635;DHT22;2330;48.158;11.816;2022-08-14T01:23:13;16.10;94.90
4635;DHT22;2330;48.158;11.816;2022-08-14T01:25:45;16.10;94.80
4635;DHT22;2330;48.158;11.816;2022-08-14T01:28:12;16.20;94.50
4635;DHT22;2330;48.158;11.816;2022-08-14T01:31:00;16.20;94.20
4635;DHT22;2330;48.158;11.816;2022-08-14T01:33:28;16.20;94.00
4635;DHT22;2330;48.158;11.816;2022-08-14T01:35:57;16.10;94.10
4635;DHT22;2330;48.158;11.816;2022-08-14T01:38:47;16.20;94.10
4635;DHT22;2330;48.158;11.816;2022-08-14T01:41:20;16.10;94.20
4635;DHT22;2330;48.158;11.816;2022-08-14T01:43:57;16.10;94.30
4635;DHT22;2330;48.158;11.816;2022-08-14T01:46:32;16.00;94.30
4635;DHT22;2330;48.158;11.816;2022-08-14T01:49:06;15.70;94.80
4635;DHT22;2330;48.158;11.816;2022-08-14T01:51:36;15.60;95.50
4635;DHT22;2330;48.158;11.816;2022-08-14T01:54:10;15.50;95.90
4635;DHT22;2330;48.158;11.816;2022-08-14T01:56:41;15.50;96.10
4635;DHT22;2330;48.158;11.816;2022-08-14T02:01:45;15.60;96.20
4635;DHT22;2330;48.158;11.816;2022-08-14T02:04:28;15.70;96.20
4635;DHT22;2330;48.158;11.816;2022-08-14T02:07:16;15.40;96.90
4635;DHT22;2330;48.158;11.816;2022-08-14T02:10:05;15.40;96.90
4635;DHT22;2330;48.158;11.816;2022-08-14T02:12:33;15.40;97.00
4635;DHT22;2330;48.158;11.816;2022-08-14T02:15:00;15.40;96.90
4635;DHT22;2330;48.158;11.816;2022-08-14T02:17:28;15.50;96.60
4635;DHT22;2330;48.158;11.816;2022-08-14T02:19:56;15.40;96.80
4635;DHT22;2330;48.158;11.816;2022-08-14T02:22:24;15.30;97.30
4635;DHT22;2330;48.158;11.816;2022-08-14T02:25:11;15.20;97.60
4635;DHT22;2330;48.158;11.816;2022-08-14T02:27:42;15.10;97.80
4635;DHT22;2330;48.158;11.816;2022-08-14T02:30:31;15.00;98.00
4635;DHT22;2330;48.158;11.816;2022-08-14T02:32:59;14.80;98.30
4635;DHT22;2330;48.158;11.816;2022-08-14T02:35:27;14.80;98.50
4635;DHT22;2330;48.158;11.816;2022-08-14T02:37:59;14.90;98.50
4635;DHT22;2330;48.158;11.816;2022-08-14T02:40:26;14.90;98.50
4635;DHT22;2330;48.158;11.816;2022-08-14T02:43:00;14.80;98.50
4635;DHT22;2330;48.158;11.816;2022-08-14T02:45:28;14.90;98.50
4635;DHT22;2330;48.158;11.816;2022-08-14T02:48:12;14.70;98.50
4635;DHT22;2330;48.158;11.816;2022-08-14T02:50:59;14.70;98.50
4635;DHT22;2330;48.158;11.816;2022-08-14T02:53:28;14.70;98.50
4635;DHT22;2330;48.158;11.816;2022-08-14T02:55:58;14.90;98.50
4635;DHT22;2330;48.158;11.816;2022-08-14T02:58:38;14.90;98.50
4635;DHT22;2330;48.158;11.816;2022-08-14T03:01:09;14.80;98.50
4635;DHT22;2330;48.158;11.816;2022-08-14T03:03:37;14.70;98.50
4635;DHT22;2330;48.158;11.816;2022-08-14T03:06:05;14.50;98.50
4635;DHT22;2330;48.158;11.816;2022-08-14T03:08:35;14.40;98.50
4635;DHT22;2330;48.158;11.816;2022-08-14T03:11:06;14.40;98.50
4635;DHT22;2330;48.158;11.816;2022-08-14T03:13:39;14.30;98.50
4635;DHT22;2330;48.158;11.816;2022-08-14T03:16:08;14.30;98.50
4635;DHT22;2330;48.158;11.816;2022-08-14T03:18:54;14.30;98.50
4635;DHT22;2330;48.158;11.816;2022-08-14T03:21:25;14.40;98.50
4635;DHT22;2330;48.158;11.816;2022-08-14T03:23:53;14.50;98.50
4635;DHT22;2330;48.158;11.816;2022-08-14T03:26:26;14.60;98.50
4635;DHT22;2330;48.158;11.816;2022-08-14T03:28:56;14.60;98.50
4635;DHT22;2330;48.158;11.816;2022-08-14T03:31:27;14.60;98.50
4635;DHT22;2330;48.158;11.816;2022-08-14T03:33:56;14.70;98.20
4635;DHT22;2330;48.158;11.816;2022-08-14T03:36:26;14.60;98.20
4635;DHT22;2330;48.158;11.816;2022-08-14T03:39:13;14.40;98.50
4635;DHT22;2330;48.158;11.816;2022-08-14T03:41:53;14.50;98.50
4635;DHT22;2330;48.158;11.816;2022-08-14T03:44:21;14.50;98.50
4635;DHT22;2330;48.158;11.816;2022-08-14T03:47:08;14.40;98.50
4635;DHT22;2330;48.158;11.816;2022-08-14T03:49:37;14.30;98.50
4635;DHT22;2330;48.158;11.816;2022-08-14T03:52:08;14.10;98.50
4635;DHT22;2330;48.158;11.816;2022-08-14T03:54:55;14.10;98.50
4635;DHT22;2330;48.158;11.816;2022-08-14T03:57:22;14.00;98.50
4635;DHT22;2330;48.158;11.816;2022-08-14T03:59:50;14.00;98.50
4635;DHT22;2330;48.158;11.816;2022-08-14T04:02:16;14.10;98.50
4635;DHT22;2330;48.158;11.816;2022-08-14T04:05:05;14.10;98.50
4635;DHT22;2330;48.158;11.816;2022-08-14T04:07:39;14.10;98.50
4635;DHT22;2330;48.158;11.816;2022-08-14T04:10:26;14.30;98.50
4635;DHT22;2330;48.158;11.816;2022-08-14T04:13:02;14.30;98.50
4635;DHT22;2330;48.158;11.816;2022-08-14T04:15:31;14.10;98.50
4635;DHT22;2330;48.158;11.816;2022-08-14T04:18:18;14.00;98.50
4635;DHT22;2330;48.158;11.816;2022-08-14T04:20:45;14.00;98.50
4635;DHT22;2330;48.158;11.816;2022-08-14T04:23:20;14.10;98.50
4635;DHT22;2330;48.158;11.816;2022-08-14T04:25:49;14.10;98.50
4635;DHT22;2330;48.158;11.816;2022-08-14T04:28:20;14.00;98.50
4635;DHT22;2330;48.158;11.816;2022-08-14T04:31:07;13.90;98.50
4635;DHT22;2330;48.158;11.816;2022-08-14T04:33:36;13.90;98.50
4635;DHT22;2330;48.158;11.816;2022-08-14T04:36:04;14.00;98.50
4635;DHT22;2330;48.158;11.816;2022-08-14T04:38:34;14.10;98.50
4635;DHT22;2330;48.158;11.816;2022-08-14T04:41:23;14.20;98.50
4635;DHT22;2330;48.158;11.816;2022-08-14T04:44:08;14.50;98.50
4635;DHT22;2330;48.158;11.816;2022-08-14T04:46:55;14.60;98.50
4635;DHT22;2330;48.158;11.816;2022-08-14T04:49:41;14.50;98.50
4635;DHT22;2330;48.158;11.816;2022-08-14T04:52:23;14.60;98.50
4635;DHT22;2330;48.158;11.816;2022-08-14T04:54:51;14.60;98.50
4635;DHT22;2330;48.158;11.816;2022-08-14T04:57:19;14.50;98.50
4635;DHT22;2330;48.158;11.816;2022-08-14T04:59:48;14.40;98.50
4635;DHT22;2330;48.158;11.816;2022-08-14T05:02:16;14.40;98.50
4635;DHT22;2330;48.158;11.816;2022-08-14T05:04:43;14.50;98.50
4635;DHT22;2330;48.158;11.816;2022-08-14T05:07:24;14.60;98.50
4635;DHT22;2330;48.158;11.816;2022-08-14T05:10:11;14.70;98.50
4635;DHT22;2330;48.158;11.816;2022-08-14T05:12:47;15.00;98.50
4635;DHT22;2330;48.158;11.816;2022-08-14T05:15:36;15.20;98.50
4635;DHT22;2330;48.158;11.816;2022-08-14T05:18:13;15.50;98.50
4635;DHT22;2330;48.158;11.816;2022-08-14T05:21:07;15.90;98.40
4635;DHT22;2330;48.158;11.816;2022-08-14T05:23:54;16.20;97.60
4635;DHT22;2330;48.158;11.816;2022-08-14T05:26:22;16.50;96.90
4635;DHT22;2330;48.158;11.816;2022-08-14T05:28:49;16.70;96.10
4635;DHT22;2330;48.158;11.816;2022-08-14T05:31:17;16.90;95.80
4635;DHT22;2330;48.158;11.816;2022-08-14T05:33:47;17.20;94.90
4635;DHT22;2330;48.158;11.816;2022-08-14T05:36:22;17.20;94.60
4635;DHT22;2330;48.158;11.816;2022-08-14T05:38:52;17.40;94.20
4635;DHT22;2330;48.158;11.816;2022-08-14T05:41:20;17.60;94.00
4635;DHT22;2330;48.158;11.816;2022-08-14T05:43:48;17.80;93.40
4635;DHT22;2330;48.158;11.816;2022-08-14T05:46:18;17.80;93.70
4635;DHT22;2330;48.158;11.816;2022-08-14T05:48:49;17.80;93.70
4635;DHT22;2330;48.158;11.816;2022-08-14T05:51:17;17.80;94.10
4635;DHT22;2330;48.158;11.816;2022-08-14T05:53:44;17.90;93.30
4635;DHT22;2330;48.158;11.816;2022-08-14T05:56:27;18.00;93.10
4635;DHT22;2330;48.158;11.816;2022-08-14T05:58:54;18.20;92.00
4635;DHT22;2330;48.158;11.816;2022-08-14T06:01:21;18.20;92.00
4635;DHT22;2330;48.158;11.816;2022-08-14T06:03:49;18.10;92.30
4635;DHT22;2330;48.158;11.816;2022-08-14T06:06:20;18.40;92.10
4635;DHT22;2330;48.158;11.816;2022-08-14T06:08:47;18.50;91.60
4635;DHT22;2330;48.158;11.816;2022-08-14T06:11:13;19.00;90.60
4635;DHT22;2330;48.158;11.816;2022-08-14T06:13:53;19.40;89.10
4635;DHT22;2330;48.158;11.816;2022-08-14T06:16:20;19.60;89.00
4635;DHT22;2330;48.158;11.816;2022-08-14T06:18:48;19.70;88.20
4635;DHT22;2330;48.158;11.816;2022-08-14T06:21:22;19.80;88.00
4635;DHT22;2330;48.158;11.816;2022-08-14T06:23:51;20.10;87.50
4635;DHT22;2330;48.158;11.816;2022-08-14T06:26:19;20.40;87.00
4635;DHT22;2330;48.158;11.816;2022-08-14T06:28:55;20.80;85.80
4635;DHT22;2330;48.158;11.816;2022-08-14T06:31:22;21.10;84.40
4635;DHT22;2330;48.158;11.816;2022-08-14T06:33:50;21.40;83.90
4635;DHT22;2330;48.158;11.816;2022-08-14T06:36:37;21.60;83.20
4635;DHT22;2330;48.158;11.816;2022-08-14T06:39:05;21.70;82.40
4635;DHT22;2330;48.158;11.816;2022-08-14T06:41:35;21.80;81.90
4635;DHT22;2330;48.158;11.816;2022-08-14T06:44:22;21.70;82.00
4635;DHT22;2330;48.158;11.816;2022-08-14T06:46:59;21.90;80.90
4635;DHT22;2330;48.158;11.816;2022-08-14T06:49:26;21.90;81.60
4635;DHT22;2330;48.158;11.816;2022-08-14T06:51:56;21.90;80.90
4635;DHT22;2330;48.158;11.816;2022-08-14T06:54:23;22.00;80.70
4635;DHT22;2330;48.158;11.816;2022-08-14T06:56:57;22.30;80.20
4635;DHT22;2330;48.158;11.816;2022-08-14T06:59:27;22.60;79.00
4635;DHT22;2330;48.158;11.816;2022-08-14T07:01:54;22.70;79.40
4635;DHT22;2330;48.158;11.816;2022-08-14T07:04:44;22.80;78.80
4635;DHT22;2330;48.158;11.816;2022-08-14T07:07:39;22.80;78.70
4635;DHT22;2330;48.158;11.816;2022-08-14T07:10:08;23.00;78.70
4635;DHT22;2330;48.158;11.816;2022-08-14T07:12:44;23.20;77.80
4635;DHT22;2330;48.158;11.816;2022-08-14T07:15:29;23.60;77.10
4635;DHT22;2330;48.158;11.816;2022-08-14T07:18:00;23.90;76.00
4635;DHT22;2330;48.158;11.816;2022-08-14T07:20:28;23.80;76.30
4635;DHT22;2330;48.158;11.816;2022-08-14T07:22:58;24.20;76.10
4635;DHT22;2330;48.158;11.816;2022-08-14T07:25:34;24.60;75.60
4635;DHT22;2330;48.158;11.816;2022-08-14T07:28:14;24.80;75.80
4635;DHT22;2330;48.158;11.816;2022-08-14T07:30:48;25.10;75.30
4635;DHT22;2330;48.158;11.816;2022-08-14T07:33:18;25.10;73.30
4635;DHT22;2330;48.158;11.816;2022-08-14T07:35:55;25.10;73.30
4635;DHT22;2330;48.158;11.816;2022-08-14T07:38:25;25.10;72.50
4635;DHT22;2330;48.158;11.816;2022-08-14T07:41:02;25.10;73.30
4635;DHT22;2330;48.158;11.816;2022-08-14T07:43:41;25.10;72.70
4635;DHT22;2330;48.158;11.816;2022-08-14T07:46:13;25.00;72.90
4635;DHT22;2330;48.158;11.816;2022-08-14T07:48:54;25.10;72.70
4635;DHT22;2330;48.158;11.816;2022-08-14T07:51:22;25.40;73.20
4635;DHT22;2330;48.158;11.816;2022-08-14T07:53:49;25.70;73.00
4635;DHT22;2330;48.158;11.816;2022-08-14T07:56:23;25.70;70.80
4635;DHT22;2330;48.158;11.816;2022-08-14T07:59:10;25.50;71.60
4635;DHT22;2330;48.158;11.816;2022-08-14T08:01:39;25.80;70.50
4635;DHT22;2330;48.158;11.816;2022-08-14T08:04:21;25.90;70.70
4635;DHT22;2330;48.158;11.816;2022-08-14T08:06:51;26.00;70.50
4635;DHT22;2330;48.158;11.816;2022-08-14T08:09:23;26.20;70.90
4635;DHT22;2330;48.158;11.816;2022-08-14T08:12:02;26.50;69.90
4635;DHT22;2330;48.158;11.816;2022-08-14T08:14:34;26.20;69.30
4635;DHT22;2330;48.158;11.816;2022-08-14T08:17:22;26.30;69.20
4635;DHT22;2330;48.158;11.816;2022-08-14T08:19:50;26.50;69.10
4635;DHT22;2330;48.158;11.816;2022-08-14T08:22:17;26.70;68.70
4635;DHT22;2330;48.158;11.816;2022-08-14T08:24:46;26.80;67.80
4635;DHT22;2330;48.158;11.816;2022-08-14T08:27:17;26.90;67.80
4635;DHT22;2330;48.158;11.816;2022-08-14T08:29:47;26.70;69.10
4635;DHT22;2330;48.158;11.816;2022-08-14T08:32:17;26.90;68.10
4635;DHT22;2330;48.158;11.816;2022-08-14T08:34:45;26.80;67.10
4635;DHT22;2330;48.158;11.816;2022-08-14T08:37:13;26.90;67.00
4635;DHT22;2330;48.158;11.816;2022-08-14T08:39:47;26.90;68.00
4635;DHT22;2330;48.158;11.816;2022-08-14T08:42:30;27.30;67.60
4635;DHT22;2330;48.158;11.816;2022-08-14T08:45:05;27.50;67.10
4635;DHT22;2330;48.158;11.816;2022-08-14T08:47:41;27.50;66.80
4635;DHT22;2330;48.158;11.816;2022-08-14T08:50:19;27.40;66.50
4635;DHT22;2330;48.158;11.816;2022-08-14T08:52:58;27.40;66.10
4635;DHT22;2330;48.158;11.816;2022-08-14T08:55:36;27.60;66.60
4635;DHT22;2330;48.158;11.816;2022-08-14T08:58:07;27.80;67.30
4635;DHT22;2330;48.158;11.816;2022-08-14T09:00:48;27.70;65.80
4635;DHT22;2330;48.158;11.816;2022-08-14T09:03:22;27.60;64.90
4635;DHT22;2330;48.158;11.816;2022-08-14T09:05:59;27.50;65.70
4635;DHT22;2330;48.158;11.816;2022-08-14T09:08:49;27.80;66.00
4635;DHT22;2330;48.158;11.816;2022-08-14T09:11:16;27.80;65.80
4635;DHT22;2330;48.158;11.816;2022-08-14T09:13:51;28.00;64.80
4635;DHT22;2330;48.158;11.816;2022-08-14T09:16:23;28.10;65.30
4635;DHT22;2330;48.158;11.816;2022-08-14T09:18:52;28.10;64.80
4635;DHT22;2330;48.158;11.816;2022-08-14T09:21:21;28.30;64.50
4635;DHT22;2330;48.158;11.816;2022-08-14T09:23:49;28.50;66.00
4635;DHT22;2330;48.158;11.816;2022-08-14T09:26:36;28.40;62.60
4635;DHT22;2330;48.158;11.816;2022-08-14T09:29:05;28.10;63.90
4635;DHT22;2330;48.158;11.816;2022-08-14T09:31:33;28.00;63.10
4635;DHT22;2330;48.158;11.816;2022-08-14T09:37:54;28.00;63.80
4635;DHT22;2330;48.158;11.816;2022-08-14T09:40:50;28.00;63.50
4635;DHT22;2330;48.158;11.816;2022-08-14T09:43:37;28.20;63.80
4635;DHT22;2330;48.158;11.816;2022-08-14T09:46:09;27.50;64.40
4635;DHT22;2330;48.158;11.816;2022-08-14T09:48:42;27.60;64.80
4635;DHT22;2330;48.158;11.816;2022-08-14T09:51:22;27.90;65.20
4635;DHT22;2330;48.158;11.816;2022-08-14T09:54:03;28.10;64.80
4635;DHT22;2330;48.158;11.816;2022-08-14T09:56:49;27.70;64.00
4635;DHT22;2330;48.158;11.816;2022-08-14T09:59:23;27.60;64.80
4635;DHT22;2330;48.158;11.816;2022-08-14T10:01:54;27.60;64.60
4635;DHT22;2330;48.158;11.816;2022-08-14T10:04:24;27.90;64.40
4635;DHT22;2330;48.158;11.816;2022-08-14T10:07:04;28.30;65.70
4635;DHT22;2330;48.158;11.816;2022-08-14T10:09:31;28.80;62.80
4635;DHT22;2330;48.158;11.816;2022-08-14T10:12:01;28.90;63.80
4635;DHT22;2330;48.158;11.816;2022-08-14T10:14:33;29.30;64.00
4635;DHT22;2330;48.158;11.816;2022-08-14T10:17:05;29.40;63.20
4635;DHT22;2330;48.158;11.816;2022-08-14T10:19:34;29.00;62.10
4635;DHT22;2330;48.158;11.816;2022-08-14T10:22:12;28.40;62.10
4635;DHT22;2330;48.158;11.816;2022-08-14T10:25:11;28.60;63.30
4635;DHT22;2330;48.158;11.816;2022-08-14T10:27:43;29.00;63.20
4635;DHT22;2330;48.158;11.816;2022-08-14T10:30:22;29.10;62.00
4635;DHT22;2330;48.158;11.816;2022-08-14T10:32:51;29.10;62.70
4635;DHT22;2330;48.158;11.816;2022-08-14T10:35:21;29.50;63.70
4635;DHT22;2330;48.158;11.816;2022-08-14T10:37:59;29.40;62.60
4635;DHT22;2330;48.158;11.816;2022-08-14T10:40:30;29.40;62.20
4635;DHT22;2330;48.158;11.816;2022-08-14T10:43:21;29.20;62.00
4635;DHT22;2330;48.158;11.816;2022-08-14T10:45:56;28.80;60.40
4635;DHT22;2330;48.158;11.816;2022-08-14T10:48:58;28.60;60.40
4635;DHT22;2330;48.158;11.816;2022-08-14T10:51:32;28.90;62.00
4635;DHT22;2330;48.158;11.816;2022-08-14T10:54:06;29.10;61.10
4635;DHT22;2330;48.158;11.816;2022-08-14T10:56:54;29.30;61.10
4635;DHT22;2330;48.158;11.816;2022-08-14T10:59:21;29.60;61.10
4635;DHT22;2330;48.158;11.816;2022-08-14T11:02:01;29.90;58.90
4635;DHT22;2330;48.158;11.816;2022-08-14T11:04:28;29.80;58.50
4635;DHT22;2330;48.158;11.816;2022-08-14T11:06:57;29.60;58.10
4635;DHT22;2330;48.158;11.816;2022-08-14T11:09:23;29.80;58.80
4635;DHT22;2330;48.158;11.816;2022-08-14T11:11:57;30.00;58.40
4635;DHT22;2330;48.158;11.816;2022-08-14T11:14:57;30.20;58.20
4635;DHT22;2330;48.158;11.816;2022-08-14T11:17:30;29.70;59.70
4635;DHT22;2330;48.158;11.816;2022-08-14T11:20:00;30.10;60.30
4635;DHT22;2330;48.158;11.816;2022-08-14T11:22:29;30.40;60.20
4635;DHT22;2330;48.158;11.816;2022-08-14T11:25:17;30.40;59.20
4635;DHT22;2330;48.158;11.816;2022-08-14T11:27:47;30.40;60.30
4635;DHT22;2330;48.158;11.816;2022-08-14T11:30:20;30.50;59.20
4635;DHT22;2330;48.158;11.816;2022-08-14T11:33:07;30.60;58.60
4635;DHT22;2330;48.158;11.816;2022-08-14T11:35:37;31.00;59.30
4635;DHT22;2330;48.158;11.816;2022-08-14T11:38:13;31.00;60.40
4635;DHT22;2330;48.158;11.816;2022-08-14T11:40:43;31.00;59.70
4635;DHT22;2330;48.158;11.816;2022-08-14T11:43:14;31.10;61.10
4635;DHT22;2330;48.158;11.816;2022-08-14T11:45:46;31.10;60.00
4635;DHT22;2330;48.158;11.816;2022-08-14T11:48:19;31.00;60.10
4635;DHT22;2330;48.158;11.816;2022-08-14T11:51:17;31.10;60.90
4635;DHT22;2330;48.158;11.816;2022-08-14T11:54:00;31.10;59.30
4635;DHT22;2330;48.158;11.816;2022-08-14T11:56:35;30.90;59.30
4635;DHT22;2330;48.158;11.816;2022-08-14T11:59:04;30.80;59.50
4635;DHT22;2330;48.158;11.816;2022-08-14T12:01:35;31.10;60.10
4635;DHT22;2330;48.158;11.816;2022-08-14T12:04:11;31.70;59.30
4635;DHT22;2330;48.158;11.816;2022-08-14T12:06:59;31.50;59.60
4635;DHT22;2330;48.158;11.816;2022-08-14T12:09:37;31.50;59.70
4635;DHT22;2330;48.158;11.816;2022-08-14T12:12:15;31.70;59.00
4635;DHT22;2330;48.158;11.816;2022-08-14T12:15:03;32.00;59.10
4635;DHT22;2330;48.158;11.816;2022-08-14T12:17:45;31.60;58.90
4635;DHT22;2330;48.158;11.816;2022-08-14T12:20:16;31.90;59.60
4635;DHT22;2330;48.158;11.816;2022-08-14T12:23:02;32.00;57.70
4635;DHT22;2330;48.158;11.816;2022-08-14T12:25:32;31.90;58.30
4635;DHT22;2330;48.158;11.816;2022-08-14T12:28:02;31.90;57.50
4635;DHT22;2330;48.158;11.816;2022-08-14T12:30:35;32.00;58.20
4635;DHT22;2330;48.158;11.816;2022-08-14T12:33:20;32.20;57.30
4635;DHT22;2330;48.158;11.816;2022-08-14T12:35:53;31.80;58.40
4635;DHT22;2330;48.158;11.816;2022-08-14T12:38:40;31.50;58.00
4635;DHT22;2330;48.158;11.816;2022-08-14T12:41:14;31.30;59.20
4635;DHT22;2330;48.158;11.816;2022-08-14T12:43:56;31.60;58.10
4635;DHT22;2330;48.158;11.816;2022-08-14T12:46:33;31.80;58.40
4635;DHT22;2330;48.158;11.816;2022-08-14T12:49:10;31.90;57.40
4635;DHT22;2330;48.158;11.816;2022-08-14T12:51:37;32.00;57.90
4635;DHT22;2330;48.158;11.816;2022-08-14T12:54:16;32.00;57.60
4635;DHT22;2330;48.158;11.816;2022-08-14T12:57:10;32.10;57.50
4635;DHT22;2330;48.158;11.816;2022-08-14T12:59:45;31.90;58.40
4635;DHT22;2330;48.158;11.816;2022-08-14T13:02:22;32.10;57.20
4635;DHT22;2330;48.158;11.816;2022-08-14T13:04:55;31.40;58.40
4635;DHT22;2330;48.158;11.816;2022-08-14T13:07:27;31.60;59.10
4635;DHT22;2330;48.158;11.816;2022-08-14T13:09:59;31.60;56.90
4635;DHT22;2330;48.158;11.816;2022-08-14T13:12:53;31.40;57.90
4635;DHT22;2330;48.158;11.816;2022-08-14T13:15:39;32.10;57.80
4635;DHT22;2330;48.158;11.816;2022-08-14T13:18:12;32.30;57.00
4635;DHT22;2330;48.158;11.816;2022-08-14T13:20:41;32.20;56.70
4635;DHT22;2330;48.158;11.816;2022-08-14T13:23:18;32.30;57.80
4635;DHT22;2330;48.158;11.816;2022-08-14T13:25:58;32.50;56.80
4635;DHT22;2330;48.158;11.816;2022-08-14T13:28:26;32.30;56.20
4635;DHT22;2330;48.158;11.816;2022-08-14T13:31:00;32.40;56.80
4635;DHT22;2330;48.158;11.816;2022-08-14T13:33:37;32.10;56.60
4635;DHT22;2330;48.158;11.816;2022-08-14T13:36:08;32.40;56.70
4635;DHT22;2330;48.158;11.816;2022-08-14T13:38:36;32.30;55.30
4635;DHT22;2330;48.158;11.816;2022-08-14T13:41:04;32.30;57.50
4635;DHT22;2330;48.158;11.816;2022-08-14T13:43:31;31.80;56.60
4635;DHT22;2330;48.158;11.816;2022-08-14T13:46:15;32.00;56.30
4635;DHT22;2330;48.158;11.816;2022-08-14T13:48:43;32.00;56.50
4635;DHT22;2330;48.158;11.816;2022-08-14T13:51:11;32.30;55.70
4635;DHT22;2330;48.158;11.816;2022-08-14T13:53:46;32.40;55.50
4635;DHT22;2330;48.158;11.816;2022-08-14T13:56:39;32.10;55.20
4635;DHT22;2330;48.158;11.816;2022-08-14T13:59:08;32.20;55.80
4635;DHT22;2330;48.158;11.816;2022-08-14T14:01:36;32.40;54.90
4635;DHT22;2330;48.158;11.816;2022-08-14T14:04:20;32.60;55.40
4635;DHT22;2330;48.158;11.816;2022-08-14T14:06:50;32.40;56.50
4635;DHT22;2330;48.158;11.816;2022-08-14T14:09:27;32.50;55.30
4635;DHT22;2330;48.158;11.816;2022-08-14T14:12:03;32.80;54.30
4635;DHT22;2330;48.158;11.816;2022-08-14T14:14:32;32.60;55.40
4635;DHT22;2330;48.158;11.816;2022-08-14T14:17:17;32.70;53.80
4635;DHT22;2330;48.158;11.816;2022-08-14T14:19:51;32.80;54.50
4635;DHT22;2330;48.158;11.816;2022-08-14T14:22:18;32.70;54.50
4635;DHT22;2330;48.158;11.816;2022-08-14T14:25:06;32.80;55.30
4635;DHT22;2330;48.158;11.816;2022-08-14T14:27:33;32.80;55.90
4635;DHT22;2330;48.158;11.816;2022-08-14T14:30:08;32.70;55.20
4635;DHT22;2330;48.158;11.816;2022-08-14T14:32:55;32.20;57.30
4635;DHT22;2330;48.158;11.816;2022-08-14T14:35:30;31.90;58.00
4635;DHT22;2330;48.158;11.816;2022-08-14T14:38:00;32.00;57.20
4635;DHT22;2330;48.158;11.816;2022-08-14T14:40:31;32.10;58.30
4635;DHT22;2330;48.158;11.816;2022-08-14T14:43:19;31.90;56.90
4635;DHT22;2330;48.158;11.816;2022-08-14T14:45:47;31.90;56.90
4635;DHT22;2330;48.158;11.816;2022-08-14T14:48:18;32.10;56.60
4635;DHT22;2330;48.158;11.816;2022-08-14T14:50:48;32.10;56.80
4635;DHT22;2330;48.158;11.816;2022-08-14T14:53:18;31.70;57.10
4635;DHT22;2330;48.158;11.816;2022-08-14T14:55:46;31.30;58.10
4635;DHT22;2330;48.158;11.816;2022-08-14T14:58:38;31.30;57.10
4635;DHT22;2330;48.158;11.816;2022-08-14T15:01:07;31.20;57.20
4635;DHT22;2330;48.158;11.816;2022-08-14T15:03:37;31.40;57.70
4635;DHT22;2330;48.158;11.816;2022-08-14T15:06:08;31.40;58.10
4635;DHT22;2330;48.158;11.816;2022-08-14T15:08:38;31.50;58.60
4635;DHT22;2330;48.158;11.816;2022-08-14T15:11:23;31.10;57.90
4635;DHT22;2330;48.158;11.816;2022-08-14T15:13:56;30.80;59.40
4635;DHT22;2330;48.158;11.816;2022-08-14T15:16:23;30.70;58.70
4635;DHT22;2330;48.158;11.816;2022-08-14T15:18:50;30.70;59.50
4635;DHT22;2330;48.158;11.816;2022-08-14T15:21:18;30.80;59.20
4635;DHT22;2330;48.158;11.816;2022-08-14T15:23:45;30.80;59.50
4635;DHT22;2330;48.158;11.816;2022-08-14T15:26:17;30.80;59.10
4635;DHT22;2330;48.158;11.816;2022-08-14T15:29:02;30.50;59.80
4635;DHT22;2330;48.158;11.816;2022-08-14T15:31:33;30.30;59.70
4635;DHT22;2330;48.158;11.816;2022-08-14T15:34:03;30.30;60.30
4635;DHT22;2330;48.158;11.816;2022-08-14T15:37:05;30.20;60.60
4635;DHT22;2330;48.158;11.816;2022-08-14T15:39:38;30.00;60.60
4635;DHT22;2330;48.158;11.816;2022-08-14T15:42:08;30.10;60.90
4635;DHT22;2330;48.158;11.816;2022-08-14T15:44:47;30.10;61.30
4635;DHT22;2330;48.158;11.816;2022-08-14T15:47:23;30.00;61.10
4635;DHT22;2330;48.158;11.816;2022-08-14T15:49:56;29.70;60.50
4635;DHT22;2330;48.158;11.816;2022-08-14T15:52:24;29.70;60.80
4635;DHT22;2330;48.158;11.816;2022-08-14T15:55:02;29.90;61.20
4635;DHT22;2330;48.158;11.816;2022-08-14T15:57:29;29.70;61.20
4635;DHT22;2330;48.158;11.816;2022-08-14T15:59:57;29.70;61.70
4635;DHT22;2330;48.158;11.816;2022-08-14T16:03:03;29.50;61.40
4635;DHT22;2330;48.158;11.816;2022-08-14T16:05:35;29.40;61.30
4635;DHT22;2330;48.158;11.816;2022-08-14T16:08:08;29.40;61.90
4635;DHT22;2330;48.158;11.816;2022-08-14T16:10:55;29.20;61.60
4635;DHT22;2330;48.158;11.816;2022-08-14T16:13:22;29.00;61.70
4635;DHT22;2330;48.158;11.816;2022-08-14T16:16:20;28.90;62.70
4635;DHT22;2330;48.158;11.816;2022-08-14T16:19:08;28.80;63.40
4635;DHT22;2330;48.158;11.816;2022-08-14T16:21:38;28.80;62.60
4635;DHT22;2330;48.158;11.816;2022-08-14T16:24:06;28.70;62.10
4635;DHT22;2330;48.158;11.816;2022-08-14T16:26:56;28.60;63.00
4635;DHT22;2330;48.158;11.816;2022-08-14T16:29:30;28.50;63.70
4635;DHT22;2330;48.158;11.816;2022-08-14T16:32:00;28.50;64.30
4635;DHT22;2330;48.158;11.816;2022-08-14T16:34:47;28.50;64.50
4635;DHT22;2330;48.158;11.816;2022-08-14T16:37:21;28.40;64.40
4635;DHT22;2330;48.158;11.816;2022-08-14T16:39:57;28.40;64.80
4635;DHT22;2330;48.158;11.816;2022-08-14T16:42:25;28.30;65.10